Terminal Aerodrome Forecast
Issued by NWS

Home | Current Version | Previous Version | Text Only | Print | Product List | Glossary On
Versions: 1 2 3 4 5 6 7 8 9 10 11 12 13 14 15 16 17 18 19 20 21 22 23 24 25 26 27 28 29
000
FTUS41 KBUF 210500 RRA
TAFIAG
TAF
KIAG 210547Z 2106/2206 26015KT P6SM SKC
     FM211100 28008KT P6SM BKN100
     FM211700 27011G17KT P6SM BKN070
     FM220100 25008KT P6SM FEW130
     FM220500 22008KT P6SM BKN045=

USA.gov is the U.S. government's official web portal to all federal, state and local government web resources and services.